createdAt,value
2023-01-27T00:03:50.008Z,0.20
2023-01-27T00:06:19.272Z,0.30
2023-01-27T00:08:47.263Z,0.20
2023-01-27T00:12:30.498Z,0.30
2023-01-27T00:14:58.577Z,0.30
2023-01-27T00:17:26.497Z,0.50
2023-01-27T00:19:58.151Z,0.30
2023-01-27T00:22:43.749Z,0.82
2023-01-27T00:29:24.793Z,0.40
2023-01-27T00:32:10.656Z,0.30
2023-01-27T00:34:39.254Z,0.30
2023-01-27T00:37:08.748Z,0.50
2023-01-27T00:39:36.795Z,0.80
2023-01-27T00:42:07.308Z,0.50
2023-01-27T00:44:36.834Z,0.30
2023-01-27T00:47:04.984Z,0.30
2023-01-27T00:49:32.991Z,0.30
2023-01-27T00:52:04.552Z,0.30
2023-01-27T00:54:34.050Z,0.40
2023-01-27T00:57:02.106Z,0.40
2023-01-27T00:59:34.088Z,0.50
2023-01-27T01:02:02.646Z,0.43
2023-01-27T01:04:31.507Z,0.40
2023-01-27T01:06:59.855Z,0.40
2023-01-27T01:09:28.151Z,0.32
2023-01-27T01:11:57.480Z,0.88
2023-01-27T01:14:25.902Z,0.30
2023-01-27T01:16:56.261Z,0.30
2023-01-27T01:19:24.407Z,0.40
2023-01-27T01:21:52.773Z,0.35
2023-01-27T01:24:21.171Z,0.30
2023-01-27T01:26:49.157Z,0.47
2023-01-27T01:29:18.700Z,0.30
2023-01-27T01:31:46.767Z,0.40
2023-01-27T01:34:14.818Z,0.30
2023-01-27T01:36:48.745Z,0.28
2023-01-27T01:39:16.909Z,0.30
2023-01-27T01:41:46.454Z,0.30
2023-01-27T01:44:26.702Z,0.30
2023-01-27T01:46:54.937Z,0.30
2023-01-27T01:49:26.809Z,0.30
2023-01-27T01:51:56.042Z,0.30
2023-01-27T01:54:25.396Z,0.30
2023-01-27T01:56:54.604Z,0.30
2023-01-27T01:59:26.692Z,0.30
2023-01-27T02:01:55.561Z,0.30
2023-01-27T02:04:27.424Z,0.50
2023-01-27T02:06:58.742Z,0.30
2023-01-27T02:09:26.756Z,0.20
2023-01-27T02:11:56.252Z,0.40
2023-01-27T02:14:25.696Z,0.30
2023-01-27T02:16:54.430Z,0.30
2023-01-27T02:19:25.947Z,0.30
2023-01-27T02:21:54.299Z,0.30
2023-01-27T02:24:22.355Z,0.30
2023-01-27T02:26:53.903Z,0.30
2023-01-27T02:29:22.813Z,0.30
2023-01-27T02:31:50.854Z,0.30
2023-01-27T02:34:20.955Z,0.30
2023-01-27T02:36:50.921Z,0.30
2023-01-27T02:39:20.041Z,0.20
2023-01-27T02:41:49.209Z,0.30
2023-01-27T02:44:20.684Z,0.30
2023-01-27T02:46:48.862Z,0.30
2023-01-27T02:49:16.911Z,0.38
2023-01-27T02:51:45.761Z,0.30
2023-01-27T02:54:13.813Z,0.30
2023-01-27T02:56:42.821Z,1.48
2023-01-27T02:59:13.531Z,0.30
2023-01-27T03:01:44.739Z,0.30
2023-01-27T03:04:13.120Z,0.30
2023-01-27T03:06:43.427Z,0.30
2023-01-27T03:09:11.928Z,0.40
2023-01-27T03:11:57.205Z,0.30
2023-01-27T03:14:42.671Z,0.30
2023-01-27T03:17:29.300Z,0.20
2023-01-27T03:19:58.182Z,0.30
2023-01-27T03:22:26.910Z,0.30
2023-01-27T03:24:58.496Z,0.50
2023-01-27T03:27:26.998Z,0.20
2023-01-27T03:30:15.434Z,0.30
2023-01-27T03:32:57.053Z,0.30
2023-01-27T03:35:49.290Z,0.30
2023-01-27T03:38:39.216Z,0.35
2023-01-27T03:41:27.425Z,0.30
2023-01-27T03:44:13.206Z,0.30
2023-01-27T03:46:44.562Z,0.30
2023-01-27T03:49:14.078Z,0.30
2023-01-27T03:51:42.525Z,0.30
2023-01-27T03:54:10.883Z,0.20
2023-01-27T03:56:38.988Z,1.02
2023-01-27T03:59:08.920Z,0.30
2023-01-27T04:01:36.995Z,0.20
2023-01-27T04:04:22.349Z,0.30
2023-01-27T04:07:00.756Z,0.20
2023-01-27T04:09:29.628Z,0.30
2023-01-27T04:12:00.035Z,0.40
2023-01-27T04:14:30.284Z,0.77
2023-01-27T04:16:59.230Z,1.33
2023-01-27T04:19:27.177Z,0.30
2023-01-27T04:21:56.803Z,0.30
2023-01-27T04:24:24.962Z,0.30
2023-01-27T04:26:56.605Z,0.30
2023-01-27T04:29:25.934Z,0.30
2023-01-27T04:31:55.841Z,0.30
2023-01-27T04:34:23.939Z,0.30
2023-01-27T04:36:52.906Z,0.40
2023-01-27T04:39:23.807Z,0.30
2023-01-27T04:41:51.953Z,0.85
2023-01-27T04:44:21.335Z,0.20
2023-01-27T04:46:49.572Z,0.20
2023-01-27T04:49:20.248Z,0.38
2023-01-27T04:51:50.684Z,0.30
2023-01-27T04:54:20.904Z,0.30
2023-01-27T04:57:07.666Z,0.40
2023-01-27T04:59:35.650Z,0.30
2023-01-27T05:02:04.672Z,0.30
2023-01-27T05:04:32.950Z,0.30
2023-01-27T05:07:00.923Z,0.30
2023-01-27T05:09:28.969Z,0.30
2023-01-27T05:11:58.233Z,0.20
2023-01-27T05:14:27.873Z,0.30
2023-01-27T05:16:56.697Z,0.30
2023-01-27T05:19:27.121Z,0.28
2023-01-27T05:21:55.170Z,0.30
2023-01-27T05:24:25.623Z,0.22
2023-01-27T05:26:54.509Z,0.30
2023-01-27T05:29:24.589Z,0.30
2023-01-27T05:31:54.007Z,0.30
2023-01-27T05:34:22.074Z,0.30
2023-01-27T05:36:52.269Z,0.30
2023-01-27T05:39:20.373Z,0.30
2023-01-27T05:41:48.402Z,0.30
2023-01-27T05:44:16.506Z,0.30
2023-01-27T05:49:27.856Z,0.20
2023-01-27T05:51:55.833Z,0.25
2023-01-27T05:54:26.215Z,0.30
2023-01-27T05:56:55.582Z,0.30
2023-01-27T05:59:25.465Z,0.30
2023-01-27T06:01:54.277Z,0.30
2023-01-27T06:04:22.594Z,0.30
2023-01-27T06:06:51.940Z,2.58
2023-01-27T06:09:19.972Z,0.30
2023-01-27T06:11:48.571Z,0.30
2023-01-27T06:14:16.559Z,0.28
2023-01-27T06:16:47.536Z,1.17
2023-01-27T06:19:15.835Z,0.90
2023-01-27T06:21:44.556Z,0.30
2023-01-27T06:24:16.309Z,1.15
2023-01-27T06:26:44.418Z,0.30
2023-01-27T06:29:12.448Z,0.20
2023-01-27T06:31:40.452Z,0.30
2023-01-27T06:34:08.531Z,0.20
2023-01-27T06:36:37.117Z,0.20
2023-01-27T06:39:06.394Z,0.30
2023-01-27T06:41:37.009Z,0.30
2023-01-27T06:44:05.080Z,0.30
2023-01-27T06:46:34.293Z,0.20
2023-01-27T06:49:02.370Z,0.28
2023-01-27T06:51:30.409Z,0.30
2023-01-27T06:53:58.434Z,0.30
2023-01-27T06:56:26.499Z,0.30
2023-01-27T06:58:55.870Z,0.30
2023-01-27T07:01:23.834Z,0.30
2023-01-27T07:03:52.042Z,0.30
2023-01-27T07:06:20.336Z,0.20
2023-01-27T07:08:50.521Z,0.30
2023-01-27T07:11:18.517Z,3.05
2023-01-27T07:13:46.626Z,0.30
2023-01-27T07:16:16.106Z,0.28
2023-01-27T07:18:44.197Z,0.30
2023-01-27T07:21:12.792Z,0.30
2023-01-27T07:23:48.347Z,0.30
2023-01-27T07:26:24.889Z,0.20
2023-01-27T07:28:56.266Z,0.40
2023-01-27T07:31:25.811Z,0.20
2023-01-27T07:33:53.967Z,0.30
2023-01-27T07:36:21.998Z,0.60
2023-01-27T07:38:50.919Z,0.30
2023-01-27T07:41:49.354Z,0.30
2023-01-27T07:44:21.877Z,0.30
2023-01-27T07:46:51.375Z,0.30
2023-01-27T07:49:19.394Z,0.30
2023-01-27T07:51:52.139Z,0.20
2023-01-27T07:54:22.887Z,0.30
2023-01-27T07:56:51.057Z,0.30
2023-01-27T07:59:23.654Z,0.30
2023-01-27T08:01:53.186Z,0.30
2023-01-27T08:04:27.347Z,1.67
2023-01-27T08:06:55.499Z,0.60
2023-01-27T08:09:24.262Z,0.30
2023-01-27T08:11:53.304Z,0.30
2023-01-27T08:14:22.673Z,0.30
2023-01-27T08:16:50.790Z,1.85
2023-01-27T08:19:20.521Z,0.30
2023-01-27T08:21:50.998Z,0.30
2023-01-27T08:24:19.335Z,0.30
2023-01-27T08:26:47.604Z,0.30
2023-01-27T08:29:15.683Z,0.30
2023-01-27T08:31:45.825Z,0.25
2023-01-27T08:34:16.797Z,0.30
2023-01-27T08:36:47.914Z,0.60
2023-01-27T08:39:16.216Z,1.27
2023-01-27T08:41:44.309Z,0.60
2023-01-27T08:44:12.395Z,1.48
2023-01-27T08:46:40.476Z,0.40
2023-01-27T08:49:08.767Z,0.60
2023-01-27T08:51:36.936Z,0.30
2023-01-27T08:54:07.315Z,0.20
2023-01-27T08:56:41.531Z,0.40
2023-01-27T08:59:09.882Z,0.30
2023-01-27T09:01:38.247Z,0.30
2023-01-27T09:04:08.265Z,0.20
2023-01-27T09:06:36.299Z,0.20
2023-01-27T09:09:12.001Z,0.30
2023-01-27T09:11:44.308Z,0.35
2023-01-27T09:14:12.570Z,0.30
2023-01-27T09:16:40.640Z,0.20
2023-01-27T09:19:09.792Z,0.30
2023-01-27T09:21:37.860Z,0.20
2023-01-27T09:24:06.419Z,0.30
2023-01-27T09:26:35.039Z,0.20
2023-01-27T09:29:04.908Z,0.25
2023-01-27T09:31:33.259Z,0.20
2023-01-27T09:34:01.504Z,0.47
2023-01-27T09:36:32.296Z,0.30
2023-01-27T09:39:15.546Z,0.30
2023-01-27T09:42:04.295Z,0.50
2023-01-27T09:45:03.395Z,0.30
2023-01-27T09:47:52.677Z,0.38
2023-01-27T09:50:30.497Z,0.47
2023-01-27T09:53:30.994Z,0.55
2023-01-27T09:56:02.155Z,2.25
2023-01-27T09:58:35.813Z,2.30
2023-01-27T10:01:18.431Z,0.30
2023-01-27T10:04:07.173Z,0.38
2023-01-27T10:06:44.182Z,0.20
2023-01-27T10:09:28.349Z,0.30
2023-01-27T10:11:59.756Z,1.30
2023-01-27T10:14:32.630Z,18.23
2023-01-27T10:17:24.279Z,5.57
2023-01-27T10:20:00.686Z,0.40
2023-01-27T10:22:35.114Z,0.20
2023-01-27T10:25:14.195Z,0.30
2023-01-27T10:27:47.028Z,0.43
2023-01-27T10:30:17.722Z,0.30
2023-01-27T10:32:52.936Z,0.30
2023-01-27T10:35:21.978Z,0.30
2023-01-27T10:37:58.856Z,0.30
2023-01-27T10:40:32.271Z,0.30
2023-01-27T10:43:04.550Z,0.30
2023-01-27T10:45:37.681Z,0.30
2023-01-27T10:48:33.623Z,0.30
2023-01-27T10:51:08.944Z,0.20
2023-01-27T10:53:50.910Z,1.10
2023-01-27T10:56:25.582Z,0.20
2023-01-27T10:58:56.915Z,0.40
2023-01-27T11:01:30.090Z,0.30
2023-01-27T11:04:03.458Z,0.30
2023-01-27T11:06:33.672Z,0.30
2023-01-27T11:09:10.581Z,0.80
2023-01-27T11:11:49.396Z,0.28
2023-01-27T11:14:22.649Z,0.20
2023-01-27T11:16:56.091Z,0.20
2023-01-27T11:19:50.529Z,0.20
2023-01-27T11:22:32.306Z,0.30
2023-01-27T11:25:05.761Z,0.20
2023-01-27T11:27:48.956Z,0.30
2023-01-27T11:30:19.605Z,0.30
2023-01-27T11:32:56.517Z,0.30
2023-01-27T11:35:26.668Z,1.10
2023-01-27T11:38:15.004Z,0.30
2023-01-27T11:40:43.644Z,0.20
2023-01-27T11:43:15.443Z,0.30
2023-01-27T11:45:46.211Z,0.25
2023-01-27T11:48:15.511Z,0.30
2023-01-27T11:50:46.507Z,0.30
2023-01-27T11:53:19.144Z,0.30
2023-01-27T11:55:50.339Z,0.20
2023-01-27T11:58:27.178Z,0.32
2023-01-27T12:00:57.859Z,0.30
2023-01-27T12:03:30.421Z,0.30
2023-01-27T12:06:02.398Z,1.10
2023-01-27T12:08:42.499Z,0.28
2023-01-27T12:11:26.903Z,0.40
2023-01-27T12:13:56.611Z,0.30
2023-01-27T12:16:29.974Z,0.30
2023-01-27T12:19:03.238Z,0.20
2023-01-27T12:22:03.995Z,0.30
2023-01-27T12:24:33.065Z,0.30
2023-01-27T12:27:01.227Z,0.20
2023-01-27T12:29:32.797Z,0.68
2023-01-27T12:32:01.344Z,0.30
2023-01-27T12:34:36.567Z,0.30
2023-01-27T12:37:08.157Z,0.30
2023-01-27T12:39:44.305Z,0.30
2023-01-27T12:42:45.401Z,0.22
2023-01-27T12:45:29.903Z,0.30
2023-01-27T12:48:05.027Z,0.30
2023-01-27T12:50:34.851Z,0.20
2023-01-27T12:53:23.885Z,0.20
2023-01-27T12:55:58.880Z,0.30
2023-01-27T12:58:31.176Z,0.30
2023-01-27T13:01:00.943Z,0.20
2023-01-27T13:03:29.399Z,1.55
2023-01-27T13:06:10.670Z,0.30
2023-01-27T13:08:41.480Z,0.25
2023-01-27T13:11:11.435Z,0.30
2023-01-27T13:13:39.813Z,0.20
2023-01-27T13:16:16.104Z,0.30
2023-01-27T13:18:44.302Z,0.30
2023-01-27T13:21:14.794Z,0.22
2023-01-27T13:23:44.442Z,0.20
2023-01-27T13:26:19.241Z,0.25
2023-01-27T13:28:53.030Z,0.30
2023-01-27T13:31:32.675Z,0.30
2023-01-27T13:34:02.824Z,1.95
2023-01-27T13:36:37.010Z,0.20
2023-01-27T13:39:11.711Z,0.30
2023-01-27T13:41:44.309Z,0.50
2023-01-27T13:44:19.230Z,0.50
2023-01-27T13:46:47.814Z,0.57
2023-01-27T13:49:30.504Z,0.65
2023-01-27T13:51:58.726Z,0.30
2023-01-27T13:54:31.209Z,0.22
2023-01-27T13:57:13.497Z,0.30
2023-01-27T13:59:47.212Z,0.30
2023-01-27T14:02:57.800Z,0.22
2023-01-27T14:05:40.227Z,0.28
2023-01-27T14:08:38.114Z,0.30
2023-01-27T14:11:24.399Z,0.43
2023-01-27T14:14:16.225Z,0.30
2023-01-27T14:16:53.189Z,0.20
2023-01-27T14:19:40.787Z,0.30
2023-01-27T14:22:14.169Z,0.30
2023-01-27T14:25:00.499Z,0.30
2023-01-27T14:27:36.811Z,0.30
2023-01-27T14:30:09.653Z,0.30
2023-01-27T14:32:44.831Z,0.30
2023-01-27T14:35:21.486Z,0.30
2023-01-27T14:37:54.957Z,0.28
2023-01-27T14:40:27.598Z,0.22
2023-01-27T14:43:17.872Z,0.20
2023-01-27T14:45:51.745Z,0.22
2023-01-27T14:48:28.038Z,0.20
2023-01-27T14:51:01.011Z,1.27
2023-01-27T14:54:08.741Z,0.20
2023-01-27T14:56:43.414Z,0.20
2023-01-27T14:59:20.983Z,1.05
2023-01-27T15:01:53.670Z,0.20
2023-01-27T15:04:43.950Z,0.30
2023-01-27T15:07:16.156Z,0.30
2023-01-27T15:10:04.254Z,0.30
2023-01-27T15:12:54.324Z,0.20
2023-01-27T15:16:00.553Z,0.25
2023-01-27T15:18:40.027Z,0.20
2023-01-27T15:21:25.868Z,0.20
2023-01-27T15:24:28.249Z,0.32
2023-01-27T15:26:57.332Z,0.20
2023-01-27T15:29:27.326Z,0.30
2023-01-27T15:32:27.412Z,0.30
2023-01-27T15:35:37.517Z,0.30
2023-01-27T15:38:20.310Z,0.30
2023-01-27T15:41:07.256Z,0.30
2023-01-27T15:43:39.979Z,0.30
2023-01-27T15:46:25.323Z,0.30
2023-01-27T15:49:01.198Z,0.30
2023-01-27T15:51:38.555Z,0.52
2023-01-27T15:54:10.980Z,0.40
2023-01-27T15:56:44.736Z,0.20
2023-01-27T15:59:15.629Z,0.30
2023-01-27T16:01:44.497Z,0.30
2023-01-27T16:04:19.728Z,0.30
2023-01-27T16:06:50.187Z,0.30
2023-01-27T16:09:30.670Z,1.90
2023-01-27T16:12:03.594Z,0.60
2023-01-27T16:14:53.157Z,0.70
2023-01-27T16:17:23.135Z,0.85
2023-01-27T16:20:04.628Z,0.93
2023-01-27T16:22:34.510Z,0.30
2023-01-27T16:25:12.770Z,0.40
2023-01-27T16:27:45.588Z,2.65
2023-01-27T16:30:18.954Z,0.40
2023-01-27T16:33:04.112Z,0.35
2023-01-27T16:35:33.869Z,0.93
2023-01-27T16:38:11.080Z,0.50
2023-01-27T16:40:40.827Z,0.30
2023-01-27T16:43:16.275Z,0.30
2023-01-27T16:45:46.312Z,0.85
2023-01-27T16:48:21.805Z,0.30
2023-01-27T16:50:50.249Z,0.38
2023-01-27T16:53:20.975Z,0.30
2023-01-27T16:56:03.414Z,0.30
2023-01-27T16:58:45.829Z,0.30
2023-01-27T17:01:21.890Z,0.30
2023-01-27T17:03:49.990Z,0.30
2023-01-27T17:06:18.015Z,0.30
2023-01-27T17:08:46.181Z,0.30
2023-01-27T17:11:23.658Z,0.30
2023-01-27T17:14:04.230Z,0.38
2023-01-27T17:16:34.470Z,0.28
2023-01-27T17:19:07.863Z,0.20
2023-01-27T17:21:38.011Z,0.30
2023-01-27T17:24:11.287Z,0.30
2023-01-27T17:26:43.917Z,0.30
2023-01-27T17:29:24.074Z,0.30
2023-01-27T17:31:52.322Z,0.60
2023-01-27T17:34:21.675Z,4.32
2023-01-27T17:37:08.132Z,18.50
2023-01-27T17:39:36.449Z,29.48
2023-01-27T17:42:09.131Z,13.25
2023-01-27T17:44:37.192Z,0.50
2023-01-27T17:47:05.613Z,0.70
2023-01-27T17:49:33.707Z,0.60
2023-01-27T17:52:02.278Z,1.17
2023-01-27T17:54:31.235Z,0.28
2023-01-27T17:57:04.150Z,2.30
2023-01-27T17:59:33.913Z,0.52
2023-01-27T18:02:08.911Z,0.28
2023-01-27T18:04:39.449Z,0.95
2023-01-27T18:07:07.694Z,0.25
2023-01-27T18:09:37.739Z,0.30
2023-01-27T18:12:07.144Z,0.40
2023-01-27T18:14:36.703Z,0.28
2023-01-27T18:17:20.064Z,1.52
2023-01-27T18:19:51.225Z,0.43
2023-01-27T18:22:19.269Z,0.57
2023-01-27T18:24:54.042Z,3.10
2023-01-27T18:27:26.995Z,0.35
2023-01-27T18:30:00.333Z,0.30
2023-01-27T18:32:29.281Z,1.85
2023-01-27T18:34:58.019Z,0.40
2023-01-27T18:37:29.425Z,0.30
2023-01-27T18:39:59.272Z,0.30
2023-01-27T18:42:28.560Z,0.60
2023-01-27T18:45:00.374Z,0.30
2023-01-27T18:47:32.301Z,0.85
2023-01-27T18:50:03.085Z,0.30
2023-01-27T18:52:31.369Z,0.30
2023-01-27T18:55:03.381Z,0.30
2023-01-27T18:57:32.377Z,0.73
2023-01-27T19:00:02.171Z,0.28
2023-01-27T19:02:30.316Z,2.15
2023-01-27T19:04:58.333Z,1.40
2023-01-27T19:07:27.453Z,0.40
2023-01-27T19:09:56.028Z,0.28
2023-01-27T19:12:34.554Z,0.30
2023-01-27T19:15:06.040Z,0.38
2023-01-27T19:17:41.303Z,0.30
2023-01-27T19:20:20.056Z,0.68
2023-01-27T19:22:48.389Z,0.35
2023-01-27T19:25:16.624Z,0.95
2023-01-27T19:27:47.762Z,0.30
2023-01-27T19:30:26.038Z,0.95
2023-01-27T19:32:54.393Z,0.30
2023-01-27T19:35:23.900Z,2.33
2023-01-27T19:37:51.983Z,0.35
2023-01-27T19:40:20.775Z,0.30
2023-01-27T19:42:48.837Z,0.30
2023-01-27T19:45:18.031Z,0.30
2023-01-27T19:47:49.113Z,0.25
2023-01-27T19:50:21.348Z,0.35
2023-01-27T19:52:49.728Z,0.55
2023-01-27T19:55:20.977Z,0.30
2023-01-27T19:57:51.738Z,0.20
2023-01-27T20:00:26.545Z,0.30
2023-01-27T20:04:02.966Z,0.30
2023-01-27T20:06:32.645Z,1.38
2023-01-27T20:09:05.037Z,1.30
2023-01-27T20:11:36.596Z,0.85
2023-01-27T20:14:05.394Z,0.30
2023-01-27T20:16:33.787Z,0.32
2023-01-27T20:19:01.826Z,0.30
2023-01-27T20:21:32.061Z,0.43
2023-01-27T20:24:01.800Z,0.20
2023-01-27T20:26:32.563Z,0.30
2023-01-27T20:29:00.779Z,0.63
2023-01-27T20:31:30.208Z,0.63
2023-01-27T20:33:58.331Z,0.55
2023-01-27T20:36:26.563Z,1.10
2023-01-27T20:38:54.576Z,0.30
2023-01-27T20:41:24.546Z,0.30
2023-01-27T20:43:55.815Z,0.73
2023-01-27T20:46:25.103Z,0.50
2023-01-27T20:49:02.143Z,1.95
2023-01-27T20:51:30.158Z,0.45
2023-01-27T20:54:01.144Z,0.28
2023-01-27T20:56:30.900Z,0.43
2023-01-27T20:58:58.894Z,1.48
2023-01-27T21:01:27.252Z,0.60
2023-01-27T21:03:55.305Z,0.93
2023-01-27T21:06:23.349Z,0.20
2023-01-27T21:08:51.356Z,0.20
2023-01-27T21:11:21.562Z,0.45
2023-01-27T21:13:52.629Z,1.15
2023-01-27T21:16:21.011Z,0.82
2023-01-27T21:18:51.434Z,0.50
2023-01-27T21:21:24.050Z,0.30
2023-01-27T21:23:52.865Z,0.40
2023-01-27T21:26:23.530Z,0.70
2023-01-27T21:28:53.083Z,0.30
2023-01-27T21:31:22.596Z,0.30
2023-01-27T21:33:50.849Z,0.40
2023-01-27T21:36:22.939Z,0.30
2023-01-27T21:38:53.953Z,0.30
2023-01-27T21:41:43.106Z,0.55
2023-01-27T21:44:34.047Z,0.30
2023-01-27T21:47:02.923Z,0.30
2023-01-27T21:49:30.938Z,1.75
2023-01-27T21:52:06.780Z,2.15
2023-01-27T21:54:34.890Z,0.40
2023-01-27T21:57:02.855Z,0.35
2023-01-27T21:59:42.428Z,1.05
2023-01-27T22:02:12.237Z,0.70
2023-01-27T22:04:42.118Z,1.48
2023-01-27T22:07:11.126Z,0.30
2023-01-27T22:09:47.281Z,0.45
2023-01-27T22:12:16.153Z,0.30
2023-01-27T22:14:45.465Z,0.30
2023-01-27T22:17:14.760Z,0.40
2023-01-27T22:19:42.833Z,1.15
2023-01-27T22:22:11.200Z,1.30
2023-01-27T22:24:39.221Z,0.30
2023-01-27T22:27:07.417Z,0.28
2023-01-27T22:29:35.658Z,0.32
2023-01-27T22:32:05.014Z,0.47
2023-01-27T22:34:33.404Z,0.30
2023-01-27T22:37:38.818Z,0.30
2023-01-27T22:40:07.577Z,0.55
2023-01-27T22:42:35.788Z,1.27
2023-01-27T22:45:03.795Z,0.40
2023-01-27T22:47:33.224Z,0.30
2023-01-27T22:50:01.615Z,0.40
2023-01-27T22:52:32.532Z,0.57
2023-01-27T22:55:09.385Z,0.30
2023-01-27T22:57:45.071Z,0.30
2023-01-27T23:00:13.762Z,1.67
2023-01-27T23:02:43.333Z,1.00
2023-01-27T23:05:11.426Z,0.30
2023-01-27T23:07:42.420Z,0.30
2023-01-27T23:10:11.547Z,1.65
2023-01-27T23:17:26.300Z,1.40
2023-01-27T23:19:58.506Z,0.47
2023-01-27T23:22:26.492Z,0.43
2023-01-27T23:24:56.556Z,0.30
2023-01-27T23:27:24.610Z,0.40
2023-01-27T23:29:52.639Z,0.30
2023-01-27T23:32:20.722Z,1.00
2023-01-27T23:34:49.074Z,0.30
2023-01-27T23:38:32.662Z,0.30
2023-01-27T23:41:03.481Z,0.30
2023-01-27T23:43:33.060Z,0.70
2023-01-27T23:46:01.414Z,0.30
2023-01-27T23:48:30.039Z,0.40
2023-01-27T23:50:58.036Z,0.30
2023-01-27T23:53:26.344Z,0.20
2023-01-27T23:55:57.427Z,0.95
2023-01-27T23:58:27.591Z,0.30
